createdAt,value
2019-05-18T00:00:03.991Z,980.41
2019-05-18T00:01:03.964Z,980.42
2019-05-18T00:02:03.972Z,980.43
2019-05-18T00:03:03.943Z,980.44
2019-05-18T00:04:03.956Z,980.48
2019-05-18T00:05:04.006Z,980.44
2019-05-18T00:06:03.916Z,980.48
2019-05-18T00:07:03.900Z,980.50
2019-05-18T00:08:03.940Z,980.52
2019-05-18T00:09:03.898Z,980.49
2019-05-18T00:10:03.886Z,980.52
2019-05-18T00:11:03.859Z,980.55
2019-05-18T00:12:03.856Z,980.51
2019-05-18T00:13:03.863Z,980.51
2019-05-18T00:14:03.836Z,980.58
2019-05-18T00:15:03.830Z,980.59
2019-05-18T00:16:03.855Z,980.47
2019-05-18T00:17:03.824Z,980.53
2019-05-18T00:18:03.812Z,980.50
2019-05-18T00:19:03.784Z,980.54
2019-05-18T00:20:03.845Z,980.50
2019-05-18T00:21:03.776Z,980.58
2019-05-18T00:22:03.789Z,980.52
2019-05-18T00:23:03.801Z,980.51
2019-05-18T00:24:03.737Z,980.53
2019-05-18T00:25:03.738Z,980.54
2019-05-18T00:26:03.694Z,980.53
2019-05-18T00:27:03.686Z,980.54
2019-05-18T00:28:03.782Z,980.48
2019-05-18T00:29:03.677Z,980.56
2019-05-18T00:30:03.677Z,980.56
2019-05-18T00:31:03.645Z,980.50
2019-05-18T00:32:03.743Z,980.51
2019-05-18T00:33:03.634Z,980.52
2019-05-18T00:34:03.629Z,980.52
2019-05-18T00:35:03.621Z,980.52
2019-05-18T00:36:03.587Z,980.51
2019-05-18T00:37:03.582Z,980.48
2019-05-18T00:38:03.572Z,980.44
2019-05-18T00:39:03.592Z,980.48
2019-05-18T00:40:03.560Z,980.39
2019-05-18T00:41:03.560Z,980.41
2019-05-18T00:42:03.548Z,980.40
2019-05-18T00:43:03.525Z,980.41
2019-05-18T00:44:03.503Z,980.45
2019-05-18T00:45:03.505Z,980.41
2019-05-18T00:46:03.482Z,980.43
2019-05-18T00:47:03.510Z,980.42
2019-05-18T00:48:03.520Z,980.37
2019-05-18T00:49:03.472Z,980.42
2019-05-18T00:50:03.462Z,980.44
2019-05-18T00:51:03.438Z,980.48
2019-05-18T00:52:03.418Z,980.46
2019-05-18T00:53:03.408Z,980.56
2019-05-18T00:54:03.408Z,980.50
2019-05-18T00:55:03.440Z,980.48
2019-05-18T00:56:03.372Z,980.48
2019-05-18T00:57:03.363Z,980.48
2019-05-18T00:58:03.349Z,980.44
2019-05-18T00:59:03.350Z,980.50
2019-05-18T01:00:03.352Z,980.49
2019-05-18T01:01:03.384Z,980.51
2019-05-18T01:02:03.311Z,980.49
2019-05-18T01:03:03.300Z,980.46
2019-05-18T01:04:03.284Z,980.49
2019-05-18T01:05:03.290Z,980.51
2019-05-18T01:06:03.284Z,980.51
2019-05-18T01:07:03.258Z,980.49
2019-05-18T01:08:03.282Z,980.52
2019-05-18T01:09:03.243Z,980.51
2019-05-18T01:10:03.244Z,980.57
2019-05-18T01:11:03.222Z,980.51
2019-05-18T01:12:03.205Z,980.50
2019-05-18T01:13:03.190Z,980.54
2019-05-18T01:14:03.204Z,980.58
2019-05-18T01:15:03.237Z,980.57
2019-05-18T01:16:03.160Z,980.53
2019-05-18T01:17:03.160Z,980.58
2019-05-18T01:18:03.143Z,980.60
2019-05-18T01:19:03.126Z,980.58
2019-05-18T01:20:03.140Z,980.60
2019-05-18T01:21:03.103Z,980.59
2019-05-18T01:22:03.118Z,980.60
2019-05-18T01:23:03.094Z,980.62
2019-05-18T01:24:03.071Z,980.53
2019-05-18T01:25:03.062Z,980.60
2019-05-18T01:26:03.062Z,980.57
2019-05-18T01:27:03.043Z,980.54
2019-05-18T01:28:03.080Z,980.54
2019-05-18T01:29:03.025Z,980.52
2019-05-18T01:30:03.009Z,980.51
2019-05-18T01:31:03.019Z,980.50
2019-05-18T01:32:02.990Z,980.49
2019-05-18T01:33:02.976Z,980.49
2019-05-18T01:34:02.962Z,980.48
2019-05-18T01:35:02.953Z,980.45
2019-05-18T01:36:02.960Z,980.49
2019-05-18T01:37:02.992Z,980.42
2019-05-18T01:38:02.945Z,980.45
2019-05-18T01:39:02.914Z,980.43
2019-05-18T01:40:02.900Z,980.40
2019-05-18T01:41:02.913Z,980.40
2019-05-18T01:42:02.880Z,980.43
2019-05-18T01:43:02.872Z,980.41
2019-05-18T01:44:02.893Z,980.39
2019-05-18T01:45:15.838Z,980.38
2019-05-18T01:46:03.920Z,980.41
2019-05-18T01:47:02.831Z,980.44
2019-05-18T01:48:13.135Z,980.40
2019-05-18T01:49:03.858Z,980.44
2019-05-18T01:50:02.813Z,980.42
2019-05-18T01:51:02.801Z,980.37
2019-05-18T01:52:02.840Z,980.35
2019-05-18T01:53:02.840Z,980.40
2019-05-18T01:54:02.778Z,980.31
2019-05-18T01:55:02.749Z,980.34
2019-05-18T01:56:02.768Z,980.36
2019-05-18T01:57:02.724Z,980.39
2019-05-18T01:58:02.717Z,980.36
2019-05-18T01:59:02.702Z,980.32
2019-05-18T02:00:02.774Z,980.36
2019-05-18T02:01:02.690Z,980.35
2019-05-18T02:02:02.703Z,980.38
2019-05-18T02:03:02.654Z,980.35
2019-05-18T02:04:02.641Z,980.36
2019-05-18T02:05:02.678Z,980.33
2019-05-18T02:06:02.637Z,980.34
2019-05-18T02:07:02.613Z,980.34
2019-05-18T02:08:02.621Z,980.31
2019-05-18T02:09:02.587Z,980.36
2019-05-18T02:10:02.754Z,980.31
2019-05-18T02:11:02.607Z,980.39
2019-05-18T02:12:02.580Z,980.37
2019-05-18T02:13:02.926Z,980.35
2019-05-18T02:14:02.594Z,980.31
2019-05-18T02:15:02.522Z,980.36
2019-05-18T02:16:02.528Z,980.34
2019-05-18T02:17:02.502Z,980.36
2019-05-18T02:18:02.500Z,980.31
2019-05-18T02:19:02.480Z,980.32
2019-05-18T02:20:02.479Z,980.29
2019-05-18T02:21:02.478Z,980.29
2019-05-18T02:22:02.464Z,980.31
2019-05-18T02:23:02.441Z,980.22
2019-05-18T02:24:02.481Z,980.29
2019-05-18T02:25:02.413Z,980.26
2019-05-18T02:26:02.468Z,980.25
2019-05-18T02:27:02.416Z,980.22
2019-05-18T02:28:02.387Z,980.21
2019-05-18T02:29:02.372Z,980.27
2019-05-18T02:30:02.377Z,980.27
2019-05-18T02:31:02.373Z,980.23
2019-05-18T02:32:02.386Z,980.23
2019-05-18T02:33:02.329Z,980.24
2019-05-18T02:34:02.323Z,980.29
2019-05-18T02:35:02.327Z,980.25
2019-05-18T02:36:02.342Z,980.27
2019-05-18T02:37:02.293Z,980.25
2019-05-18T02:38:02.319Z,980.28
2019-05-18T02:39:02.272Z,980.28
2019-05-18T02:40:02.285Z,980.30
2019-05-18T02:41:02.278Z,980.30
2019-05-18T02:42:02.261Z,980.34
2019-05-18T02:43:02.236Z,980.37
2019-05-18T02:44:02.239Z,980.29
2019-05-18T02:45:02.259Z,980.32
2019-05-18T02:46:02.201Z,980.32
2019-05-18T02:47:02.201Z,980.27
2019-05-18T02:48:02.184Z,980.27
2019-05-18T02:49:02.181Z,980.30
2019-05-18T02:50:02.150Z,980.36
2019-05-18T02:51:02.172Z,980.30
2019-05-18T02:52:02.164Z,980.27
2019-05-18T02:53:02.123Z,980.30
2019-05-18T02:54:02.114Z,980.32
2019-05-18T02:55:02.100Z,980.30
2019-05-18T02:56:02.097Z,980.29
2019-05-18T02:57:02.082Z,980.31
2019-05-18T02:58:02.093Z,980.30
2019-05-18T02:59:02.064Z,980.25
2019-05-18T03:00:02.052Z,980.29
2019-05-18T03:01:02.040Z,980.26
2019-05-18T03:02:02.033Z,980.27
2019-05-18T03:03:02.010Z,980.27
2019-05-18T03:04:02.022Z,980.24
2019-05-18T03:05:02.028Z,980.24
2019-05-18T03:06:01.983Z,980.26
2019-05-18T03:07:01.978Z,980.29
2019-05-18T03:08:01.958Z,980.24
2019-05-18T03:09:01.956Z,980.23
2019-05-18T03:10:01.972Z,980.23
2019-05-18T03:11:01.925Z,980.21
2019-05-18T03:12:01.960Z,980.18
2019-05-18T03:13:01.911Z,980.14
2019-05-18T03:14:02.010Z,980.21
2019-05-18T03:15:01.927Z,980.20
2019-05-18T03:16:01.890Z,980.15
2019-05-18T03:17:01.882Z,980.19
2019-05-18T03:18:01.872Z,980.24
2019-05-18T03:19:08.404Z,980.18
2019-05-18T03:20:02.863Z,980.23
2019-05-18T03:21:01.818Z,980.19
2019-05-18T03:22:01.829Z,980.16
2019-05-18T03:23:01.792Z,980.18
2019-05-18T03:24:01.803Z,980.21
2019-05-18T03:25:01.773Z,980.16
2019-05-18T03:26:01.786Z,980.19
2019-05-18T03:27:01.773Z,980.19
2019-05-18T03:28:01.736Z,980.17
2019-05-18T03:29:01.726Z,980.11
2019-05-18T03:30:01.765Z,980.13
2019-05-18T03:31:01.743Z,980.15
2019-05-18T03:32:01.735Z,980.14
2019-05-18T03:33:01.700Z,980.14
2019-05-18T03:34:01.683Z,980.13
2019-05-18T03:35:01.741Z,980.13
2019-05-18T03:36:01.650Z,980.20
2019-05-18T03:37:01.666Z,980.15
2019-05-18T03:38:01.637Z,980.13
2019-05-18T03:39:01.629Z,980.16
2019-05-18T03:40:01.617Z,980.12
2019-05-18T03:41:01.620Z,980.14
2019-05-18T03:42:01.624Z,980.13
2019-05-18T03:43:01.598Z,980.11
2019-05-18T03:44:01.608Z,980.09
2019-05-18T03:45:01.601Z,980.12
2019-05-18T03:46:01.543Z,980.14
2019-05-18T03:47:01.559Z,980.16
2019-05-18T03:48:01.566Z,980.10
2019-05-18T03:49:01.541Z,980.16
2019-05-18T03:50:01.514Z,980.10
2019-05-18T03:51:01.500Z,980.10
2019-05-18T03:52:01.492Z,980.15
2019-05-18T03:53:01.479Z,980.10
2019-05-18T03:54:01.498Z,980.13
2019-05-18T03:55:01.456Z,980.14
2019-05-18T03:56:01.458Z,980.18
2019-05-18T03:57:01.449Z,980.12
2019-05-18T03:58:01.444Z,980.14
2019-05-18T03:59:01.410Z,980.15
2019-05-18T04:00:01.477Z,980.12
2019-05-18T04:01:01.384Z,980.11
2019-05-18T04:02:01.390Z,980.10
2019-05-18T04:03:01.376Z,980.16
2019-05-18T04:04:01.363Z,980.13
2019-05-18T04:05:01.343Z,980.12
2019-05-18T04:06:01.423Z,980.05
2019-05-18T04:07:01.348Z,980.17
2019-05-18T04:08:01.339Z,980.21
2019-05-18T04:09:01.310Z,980.21
2019-05-18T04:10:01.292Z,980.17
2019-05-18T04:11:01.284Z,980.21
2019-05-18T04:12:01.273Z,980.25
2019-05-18T04:13:01.272Z,980.27
2019-05-18T04:14:01.285Z,980.23
2019-05-18T04:15:01.267Z,980.29
2019-05-18T04:16:01.233Z,980.25
2019-05-18T04:17:01.219Z,980.18
2019-05-18T04:18:01.236Z,980.21
2019-05-18T04:19:01.200Z,980.21
2019-05-18T04:20:01.200Z,980.24
2019-05-18T04:21:01.198Z,980.24
2019-05-18T04:22:01.169Z,980.23
2019-05-18T04:23:01.166Z,980.23
2019-05-18T04:24:01.146Z,980.29
2019-05-18T04:25:01.124Z,980.25
2019-05-18T04:26:01.145Z,980.28
2019-05-18T04:27:01.115Z,980.30
2019-05-18T04:28:01.107Z,980.30
2019-05-18T04:29:01.122Z,980.26
2019-05-18T04:30:01.097Z,980.29
2019-05-18T04:31:01.066Z,980.33
2019-05-18T04:32:01.058Z,980.29
2019-05-18T04:33:01.056Z,980.24
2019-05-18T04:34:01.050Z,980.24
2019-05-18T04:35:01.019Z,980.22
2019-05-18T04:36:01.026Z,980.24
2019-05-18T04:37:01.021Z,980.24
2019-05-18T04:38:01.003Z,980.28
2019-05-18T04:39:00.977Z,980.23
2019-05-18T04:40:00.978Z,980.20
2019-05-18T04:41:00.976Z,980.30
2019-05-18T04:42:00.972Z,980.28
2019-05-18T04:43:00.942Z,980.30
2019-05-18T04:44:00.932Z,980.29
2019-05-18T04:45:00.917Z,980.27
2019-05-18T04:46:00.909Z,980.21
2019-05-18T04:47:00.900Z,980.23
2019-05-18T04:48:00.930Z,980.24
2019-05-18T04:49:00.878Z,980.19
2019-05-18T04:50:05.015Z,980.18
2019-05-18T04:51:00.852Z,980.17
2019-05-18T04:52:00.846Z,980.19
2019-05-18T04:53:00.842Z,980.23
2019-05-18T04:54:00.848Z,980.18
2019-05-18T04:55:00.811Z,980.20
2019-05-18T04:56:00.804Z,980.25
2019-05-18T04:57:00.791Z,980.25
2019-05-18T04:58:00.788Z,980.20
2019-05-18T04:59:00.763Z,980.24
2019-05-18T05:00:00.756Z,980.22
2019-05-18T05:01:00.752Z,980.18
2019-05-18T05:02:00.818Z,980.14
2019-05-18T05:03:00.725Z,980.14
2019-05-18T05:04:00.959Z,980.11
2019-05-18T05:05:00.695Z,980.16
2019-05-18T05:06:00.691Z,980.08
2019-05-18T05:07:00.679Z,980.08
2019-05-18T05:08:00.688Z,980.11
2019-05-18T05:09:00.652Z,980.10
2019-05-18T05:10:00.640Z,980.15
2019-05-18T05:11:00.628Z,980.15
2019-05-18T05:12:00.621Z,980.14
2019-05-18T05:13:00.617Z,980.16
2019-05-18T05:14:00.633Z,980.11
2019-05-18T05:15:00.589Z,980.17
2019-05-18T05:16:00.576Z,980.16
2019-05-18T05:17:00.575Z,980.12
2019-05-18T05:18:00.586Z,980.09
2019-05-18T05:19:00.543Z,980.14
2019-05-18T05:20:00.588Z,980.16
2019-05-18T05:21:00.560Z,980.10
2019-05-18T05:22:00.523Z,980.12
2019-05-18T05:23:00.509Z,980.10
2019-05-18T05:24:00.500Z,980.09
2019-05-18T05:25:00.485Z,980.01
2019-05-18T05:26:00.468Z,980.03
2019-05-18T05:27:00.479Z,980.06
2019-05-18T05:28:00.459Z,979.97
2019-05-18T05:29:00.481Z,980.04
2019-05-18T05:30:00.434Z,980.02
2019-05-18T05:31:00.425Z,980.08
2019-05-18T05:32:00.439Z,980.06
2019-05-18T05:33:00.401Z,980.08
2019-05-18T05:34:00.405Z,980.08
2019-05-18T05:35:00.404Z,980.02
2019-05-18T05:36:00.362Z,980.04
2019-05-18T05:37:00.358Z,980.05
2019-05-18T05:38:00.349Z,980.02
2019-05-18T05:39:00.349Z,980.04
2019-05-18T05:40:00.341Z,980.04
2019-05-18T05:41:00.320Z,980.05
2019-05-18T05:42:00.297Z,980.09
2019-05-18T05:43:00.293Z,980.06
2019-05-18T05:44:00.295Z,980.03
2019-05-18T05:45:00.270Z,980.05
2019-05-18T05:46:00.298Z,980.11
2019-05-18T05:47:00.242Z,980.08
2019-05-18T05:48:00.243Z,980.10
2019-05-18T05:49:00.233Z,980.07
2019-05-18T05:50:00.213Z,980.10
2019-05-18T05:51:00.208Z,980.11
2019-05-18T05:52:00.206Z,980.08
2019-05-18T05:53:00.223Z,980.07
2019-05-18T05:54:00.187Z,980.09
2019-05-18T05:55:00.158Z,980.08
2019-05-18T05:56:00.145Z,980.11
2019-05-18T05:57:00.139Z,980.07
2019-05-18T05:58:00.126Z,980.05
2019-05-18T05:59:00.163Z,980.04
2019-05-18T06:00:00.121Z,980.05
2019-05-18T06:01:00.108Z,980.01
2019-05-18T06:02:00.082Z,980.03
2019-05-18T06:03:00.092Z,980.04
2019-05-18T06:04:00.067Z,980.03
2019-05-18T06:05:00.045Z,980.04
2019-05-18T06:06:00.041Z,980.10
2019-05-18T06:07:00.137Z,980.11
2019-05-18T06:08:00.014Z,980.07
2019-05-18T06:09:00.038Z,980.07
2019-05-18T06:10:00.013Z,980.03
2019-05-18T06:11:00.023Z,980.05
2019-05-18T06:11:59.976Z,980.08
2019-05-18T06:12:59.972Z,980.10
2019-05-18T06:13:59.992Z,980.09
2019-05-18T06:14:59.957Z,980.06
2019-05-18T06:15:59.932Z,980.07
2019-05-18T06:16:59.927Z,980.05
2019-05-18T06:17:59.916Z,980.06
2019-05-18T06:18:59.911Z,980.05
2019-05-18T06:19:59.897Z,980.05
2019-05-18T06:20:59.925Z,980.09
2019-05-18T06:21:59.865Z,980.09
2019-05-18T06:22:59.886Z,980.09
2019-05-18T06:23:59.920Z,980.12
2019-05-18T06:24:59.875Z,980.11
2019-05-18T06:25:59.852Z,980.05
2019-05-18T06:26:59.828Z,980.08
2019-05-18T06:27:59.813Z,980.04
2019-05-18T06:28:59.823Z,980.08
2019-05-18T06:29:59.787Z,980.06
2019-05-18T06:30:59.772Z,980.03
2019-05-18T06:31:59.755Z,980.11
2019-05-18T06:32:59.747Z,980.08
2019-05-18T06:33:59.736Z,980.09
2019-05-18T06:34:59.773Z,980.07
2019-05-18T06:35:59.716Z,980.00
2019-05-18T06:36:59.703Z,980.02
2019-05-18T06:37:59.689Z,980.02
2019-05-18T06:38:59.678Z,979.96
2019-05-18T06:39:59.681Z,979.90
2019-05-18T06:40:59.673Z,979.97
2019-05-18T06:41:59.656Z,979.98
2019-05-18T06:42:59.646Z,979.94
2019-05-18T06:43:59.632Z,979.98
2019-05-18T06:44:59.635Z,979.96
2019-05-18T06:45:59.620Z,980.04
2019-05-18T06:46:59.589Z,980.04
2019-05-18T06:47:59.594Z,980.03
2019-05-18T06:48:59.643Z,980.07
2019-05-18T06:49:59.584Z,980.04
2019-05-18T06:51:07.082Z,980.11
2019-05-18T06:52:00.544Z,980.08
2019-05-18T06:52:59.528Z,980.11
2019-05-18T06:53:59.521Z,980.13
2019-05-18T06:54:59.527Z,980.06
2019-05-18T06:55:59.498Z,980.16
2019-05-18T06:56:59.493Z,980.09
2019-05-18T06:57:59.482Z,980.16
2019-05-18T06:58:59.464Z,980.14
2019-05-18T06:59:59.523Z,980.15
2019-05-18T07:00:59.456Z,980.13
2019-05-18T07:01:59.459Z,980.18
2019-05-18T07:02:59.426Z,980.15
2019-05-18T07:03:59.419Z,980.16
2019-05-18T07:04:59.428Z,980.20
2019-05-18T07:05:59.396Z,980.19
2019-05-18T07:06:59.394Z,980.18
2019-05-18T07:07:59.377Z,980.17
2019-05-18T07:08:59.365Z,980.23
2019-05-18T07:09:59.361Z,980.18
2019-05-18T07:10:59.342Z,980.26
2019-05-18T07:11:59.359Z,980.26
2019-05-18T07:12:59.320Z,980.26
2019-05-18T07:13:59.312Z,980.27
2019-05-18T07:15:00.465Z,980.17
2019-05-18T07:15:59.292Z,980.21
2019-05-18T07:16:59.311Z,980.21
2019-05-18T07:17:59.259Z,980.21
2019-05-18T07:18:59.272Z,980.19
2019-05-18T07:19:59.257Z,980.15
2019-05-18T07:20:59.229Z,980.19
2019-05-18T07:21:59.527Z,980.17
2019-05-18T07:22:59.204Z,980.18
2019-05-18T07:23:59.194Z,980.16
2019-05-18T07:24:59.200Z,980.15
2019-05-18T07:25:59.173Z,980.10
2019-05-18T07:26:59.168Z,980.11
2019-05-18T07:27:59.153Z,980.08
2019-05-18T07:28:59.140Z,980.04
2019-05-18T07:29:59.141Z,980.00
2019-05-18T07:30:59.125Z,980.04
2019-05-18T07:31:59.121Z,979.95
2019-05-18T07:32:59.099Z,979.92
2019-05-18T07:33:59.091Z,980.07
2019-05-18T07:34:59.088Z,980.00
2019-05-18T07:35:59.068Z,979.96
2019-05-18T07:36:59.061Z,980.04
2019-05-18T07:37:59.046Z,980.03
2019-05-18T07:38:59.033Z,979.96
2019-05-18T07:39:59.033Z,980.01
2019-05-18T07:40:59.011Z,979.94
2019-05-18T07:41:59.000Z,979.95
2019-05-18T07:42:58.993Z,979.92
2019-05-18T07:43:58.983Z,980.01
2019-05-18T07:44:58.996Z,979.89
2019-05-18T07:45:58.957Z,980.03
2019-05-18T07:46:58.948Z,980.03
2019-05-18T07:47:58.935Z,979.96
2019-05-18T07:48:58.923Z,979.96
2019-05-18T07:49:58.932Z,979.96
2019-05-18T07:50:58.950Z,979.96
2019-05-18T07:51:58.928Z,979.99
2019-05-18T07:52:58.881Z,979.96
2019-05-18T07:53:58.872Z,979.97
2019-05-18T07:54:58.860Z,979.98
2019-05-18T07:55:58.860Z,980.02
2019-05-18T07:56:58.840Z,979.90
2019-05-18T07:57:58.830Z,979.99
2019-05-18T07:58:58.816Z,979.90
2019-05-18T07:59:58.807Z,979.95
2019-05-18T08:00:58.823Z,979.93
2019-05-18T08:01:58.786Z,979.88
2019-05-18T08:02:58.773Z,979.95
2019-05-18T08:03:58.763Z,979.91
2019-05-18T08:04:58.755Z,979.89
2019-05-18T08:05:58.756Z,979.94
2019-05-18T08:06:58.732Z,979.83
2019-05-18T08:07:58.721Z,979.94
2019-05-18T08:08:58.721Z,979.93
2019-05-18T08:09:58.701Z,979.94
2019-05-18T08:10:58.699Z,979.96
2019-05-18T08:11:58.677Z,979.93
2019-05-18T08:12:58.685Z,979.87
2019-05-18T08:13:58.659Z,979.94
2019-05-18T08:14:58.647Z,979.91
2019-05-18T08:15:58.645Z,979.89
2019-05-18T08:16:58.632Z,979.81
2019-05-18T08:17:58.620Z,979.83
2019-05-18T08:18:58.602Z,979.83
2019-05-18T08:19:58.594Z,979.82
2019-05-18T08:20:58.608Z,979.82
2019-05-18T08:21:58.580Z,979.81
2019-05-18T08:22:58.562Z,979.76
2019-05-18T08:23:58.550Z,979.77
2019-05-18T08:24:58.539Z,979.78
2019-05-18T08:25:58.544Z,979.75
2019-05-18T08:27:01.997Z,979.76
2019-05-18T08:27:58.507Z,979.82
2019-05-18T08:28:58.496Z,979.77
2019-05-18T08:29:58.485Z,979.79
2019-05-18T08:30:58.486Z,979.83
2019-05-18T08:31:58.512Z,979.83
2019-05-18T08:32:58.454Z,979.82
2019-05-18T08:33:58.442Z,979.79
2019-05-18T08:34:58.432Z,979.79
2019-05-18T08:35:58.433Z,979.83
2019-05-18T08:36:58.415Z,979.75
2019-05-18T08:37:58.410Z,979.78
2019-05-18T08:38:58.388Z,979.75
2019-05-18T08:39:58.378Z,979.81
2019-05-18T08:40:58.381Z,979.78
2019-05-18T08:41:58.355Z,979.72
2019-05-18T08:42:58.346Z,979.75
2019-05-18T08:43:58.336Z,979.78
2019-05-18T08:44:58.327Z,979.80
2019-05-18T08:45:58.323Z,979.74
2019-05-18T08:46:58.304Z,979.74
2019-05-18T08:47:58.294Z,979.71
2019-05-18T08:48:58.281Z,979.72
2019-05-18T08:49:58.270Z,979.65
2019-05-18T08:50:58.282Z,979.69
2019-05-18T08:52:07.865Z,979.70
2019-05-18T08:52:59.237Z,979.66
2019-05-18T08:53:58.241Z,979.65
2019-05-18T08:54:58.219Z,979.65
2019-05-18T08:55:58.228Z,979.67
2019-05-18T08:56:58.196Z,979.64
2019-05-18T08:57:58.189Z,979.64
2019-05-18T08:58:58.177Z,979.69
2019-05-18T08:59:58.176Z,979.63
2019-05-18T09:00:58.153Z,979.61
2019-05-18T09:01:58.154Z,979.66
2019-05-18T09:02:58.131Z,979.67
2019-05-18T09:03:58.121Z,979.71
2019-05-18T09:04:58.111Z,979.64
2019-05-18T09:05:58.100Z,979.67
2019-05-18T09:06:58.103Z,979.66
2019-05-18T09:07:58.079Z,979.73
2019-05-18T09:08:58.067Z,979.66
2019-05-18T09:09:58.056Z,979.67
2019-05-18T09:10:58.047Z,979.62
2019-05-18T09:11:58.052Z,979.65
2019-05-18T09:12:58.026Z,979.68
2019-05-18T09:13:58.013Z,979.61
2019-05-18T09:14:58.004Z,979.67
2019-05-18T09:15:57.996Z,979.60
2019-05-18T09:16:57.996Z,979.59
2019-05-18T09:17:57.977Z,979.58
2019-05-18T09:18:57.963Z,979.50
2019-05-18T09:19:57.954Z,979.55
2019-05-18T09:20:57.968Z,979.58
2019-05-18T09:21:57.971Z,979.57
2019-05-18T09:22:57.927Z,979.55
2019-05-18T09:23:57.935Z,979.48
2019-05-18T09:24:57.905Z,979.48
2019-05-18T09:25:57.894Z,979.52
2019-05-18T09:26:57.888Z,979.50
2019-05-18T09:27:57.868Z,979.42
2019-05-18T09:28:57.861Z,979.44
2019-05-18T09:29:57.848Z,979.45
2019-05-18T09:30:57.837Z,979.46
2019-05-18T09:31:57.838Z,979.44
2019-05-18T09:32:57.819Z,979.48
2019-05-18T09:33:57.807Z,979.38
2019-05-18T09:34:57.805Z,979.40
2019-05-18T09:35:57.784Z,979.43
2019-05-18T09:36:57.790Z,979.41
2019-05-18T09:37:57.767Z,979.48
2019-05-18T09:38:57.792Z,979.44
2019-05-18T09:39:57.751Z,979.40
2019-05-18T09:40:57.739Z,979.44
2019-05-18T09:41:57.734Z,979.45
2019-05-18T09:42:57.710Z,979.38
2019-05-18T09:43:57.706Z,979.39
2019-05-18T09:44:57.704Z,979.34
2019-05-18T09:45:57.698Z,979.40
2019-05-18T09:46:57.677Z,979.37
2019-05-18T09:47:57.681Z,979.33
2019-05-18T09:48:57.650Z,979.29
2019-05-18T09:49:57.636Z,979.25
2019-05-18T09:50:57.626Z,979.30
2019-05-18T09:51:57.627Z,979.27
2019-05-18T09:52:57.603Z,979.30
2019-05-18T09:53:57.594Z,979.24
2019-05-18T09:54:57.584Z,979.27
2019-05-18T09:55:57.573Z,979.29
2019-05-18T09:56:57.574Z,979.19
2019-05-18T09:57:57.557Z,979.16
2019-05-18T09:58:57.544Z,979.18
2019-05-18T09:59:57.535Z,979.18
2019-05-18T10:00:57.529Z,979.14
2019-05-18T10:01:57.523Z,979.18
2019-05-18T10:02:57.504Z,979.19
2019-05-18T10:03:57.496Z,979.16
2019-05-18T10:04:57.484Z,979.07
2019-05-18T10:05:57.474Z,979.13
2019-05-18T10:06:57.471Z,979.07
2019-05-18T10:07:57.449Z,979.09
2019-05-18T10:08:57.450Z,979.09
2019-05-18T10:09:57.427Z,979.01
2019-05-18T10:10:57.417Z,979.04
2019-05-18T10:11:57.428Z,979.03
2019-05-18T10:12:57.397Z,978.99
2019-05-18T10:13:57.388Z,979.02
2019-05-18T10:14:57.383Z,978.99
2019-05-18T10:15:57.379Z,978.99
2019-05-18T10:16:57.392Z,978.99
2019-05-18T10:17:57.342Z,978.90
2019-05-18T10:18:57.331Z,978.95
2019-05-18T10:19:57.320Z,978.87
2019-05-18T10:20:57.312Z,978.94
2019-05-18T10:21:57.301Z,979.02
2019-05-18T10:23:11.950Z,978.90
2019-05-18T10:23:58.280Z,978.91
2019-05-18T10:24:57.270Z,978.97
2019-05-18T10:25:57.256Z,978.93
2019-05-18T10:26:57.247Z,978.88
2019-05-18T10:27:57.245Z,978.91
2019-05-18T10:28:57.226Z,978.93
2019-05-18T10:29:57.226Z,978.92
2019-05-18T10:30:57.232Z,978.88
2019-05-18T10:31:57.197Z,978.89
2019-05-18T10:32:57.193Z,978.84
2019-05-18T10:33:57.175Z,978.80
2019-05-18T10:34:57.161Z,978.88
2019-05-18T10:35:57.153Z,978.84
2019-05-18T10:36:57.149Z,978.84
2019-05-18T10:37:57.140Z,978.80
2019-05-18T10:38:57.130Z,978.81
2019-05-18T10:39:57.111Z,978.84
2019-05-18T10:40:57.105Z,978.87
2019-05-18T10:41:57.092Z,978.84
2019-05-18T10:42:57.092Z,978.84
2019-05-18T10:43:57.142Z,978.77
2019-05-18T10:44:57.059Z,978.76
2019-05-18T10:45:57.047Z,978.76
2019-05-18T10:46:57.041Z,978.82
2019-05-18T10:47:57.075Z,978.78
2019-05-18T10:48:57.024Z,978.80
2019-05-18T10:49:57.022Z,978.85
2019-05-18T10:50:57.040Z,978.90
2019-05-18T10:51:56.986Z,978.83
2019-05-18T10:52:56.985Z,978.77
2019-05-18T10:53:56.966Z,978.75
2019-05-18T10:54:56.954Z,978.83
2019-05-18T10:55:56.949Z,978.80
2019-05-18T10:56:56.936Z,978.83
2019-05-18T10:57:56.933Z,978.85
2019-05-18T10:58:56.916Z,978.80
2019-05-18T10:59:56.902Z,978.79
2019-05-18T11:00:56.898Z,978.80
2019-05-18T11:01:56.884Z,978.75
2019-05-18T11:02:56.887Z,978.78
2019-05-18T11:03:56.880Z,978.76
2019-05-18T11:04:56.912Z,978.81
2019-05-18T11:05:56.844Z,978.77
2019-05-18T11:06:56.831Z,978.69
2019-05-18T11:07:56.866Z,978.65
2019-05-18T11:08:56.813Z,978.80
2019-05-18T11:09:56.800Z,978.71
2019-05-18T11:10:56.806Z,978.71
2019-05-18T11:11:56.779Z,978.66
2019-05-18T11:12:56.783Z,978.71
2019-05-18T11:13:56.758Z,978.68
2019-05-18T11:14:56.748Z,978.69
2019-05-18T11:15:56.740Z,978.63
2019-05-18T11:16:56.729Z,978.65
2019-05-18T11:17:56.729Z,978.70
2019-05-18T11:18:56.707Z,978.64
2019-05-18T11:19:56.700Z,978.68
2019-05-18T11:20:56.698Z,978.66
2019-05-18T11:21:56.678Z,978.62
2019-05-18T11:22:56.678Z,978.63
2019-05-18T11:23:56.656Z,978.64
2019-05-18T11:24:56.644Z,978.62
2019-05-18T11:25:56.638Z,978.64
2019-05-18T11:26:56.632Z,978.60
2019-05-18T11:27:56.625Z,978.62
2019-05-18T11:28:56.614Z,978.63
2019-05-18T11:29:56.595Z,978.65
2019-05-18T11:30:56.584Z,978.66
2019-05-18T11:31:56.577Z,978.67
2019-05-18T11:32:56.578Z,978.60
2019-05-18T11:33:56.559Z,978.60
2019-05-18T11:34:56.548Z,978.57
2019-05-18T11:35:56.534Z,978.52
2019-05-18T11:36:56.533Z,978.48
2019-05-18T11:37:56.538Z,978.45
2019-05-18T11:38:56.872Z,978.51
2019-05-18T11:39:56.934Z,978.51
2019-05-18T11:40:56.484Z,978.56
2019-05-18T11:41:56.546Z,978.56
2019-05-18T11:42:56.465Z,978.50
2019-05-18T11:43:56.466Z,978.48
2019-05-18T11:44:56.444Z,978.50
2019-05-18T11:45:56.437Z,978.51
2019-05-18T11:46:56.425Z,978.50
2019-05-18T11:47:56.427Z,978.51
2019-05-18T11:48:56.411Z,978.52
2019-05-18T11:49:56.400Z,978.46
2019-05-18T11:50:56.381Z,978.52
2019-05-18T11:51:56.373Z,978.46
2019-05-18T11:52:56.397Z,978.46
2019-05-18T11:53:58.581Z,978.40
2019-05-18T11:54:56.341Z,978.45
2019-05-18T11:55:56.334Z,978.41
2019-05-18T11:56:56.337Z,978.37
2019-05-18T11:57:56.312Z,978.41
2019-05-18T11:58:56.311Z,978.43
2019-05-18T11:59:56.292Z,978.36
2019-05-18T12:00:56.289Z,978.36
2019-05-18T12:01:56.272Z,978.35
2019-05-18T12:02:56.261Z,978.38
2019-05-18T12:03:56.261Z,978.33
2019-05-18T12:04:56.239Z,978.41
2019-05-18T12:05:56.229Z,978.39
2019-05-18T12:06:56.222Z,978.39
2019-05-18T12:07:56.208Z,978.31
2019-05-18T12:08:58.588Z,978.37
2019-05-18T12:09:56.193Z,978.37
2019-05-18T12:10:56.403Z,978.41
2019-05-18T12:11:56.170Z,978.34
2019-05-18T12:12:56.158Z,978.41
2019-05-18T12:13:56.162Z,978.38
2019-05-18T12:14:56.138Z,978.33
2019-05-18T12:15:56.126Z,978.36
2019-05-18T12:16:56.118Z,978.34
2019-05-18T12:17:56.111Z,978.31
2019-05-18T12:18:57.709Z,978.32
2019-05-18T12:19:56.106Z,978.34
2019-05-18T12:20:56.087Z,978.31
2019-05-18T12:21:56.063Z,978.31
2019-05-18T12:22:56.055Z,978.33
2019-05-18T12:23:56.052Z,978.33
2019-05-18T12:24:56.034Z,978.32
2019-05-18T12:25:56.024Z,978.33
2019-05-18T12:26:56.012Z,978.33
2019-05-18T12:27:56.072Z,978.29